Terminal Aerodrome Forecast
Issued by NWS

Home | Current Version | Previous Version | Text Only | Print | Product List | Glossary On
Versions: 1 2 3 4 5 6 7 8 9 10 11 12 13 14
000
FTUS46 KSTO 232300
TAFRBL
TAF
KRBL 232322Z 2400/2424 17014G24KT P6SM BKN200
     FM240600 16010KT P6SM FEW060 OVC120
     FM241900 16015G25KT P6SM -RA BKN050 OVC100=

USA.gov is the U.S. government's official web portal to all federal, state and local government web resources and services.